createdAt,value
2023-04-01T00:02:15.980Z,14.00
2023-04-01T00:05:02.890Z,14.10
2023-04-01T00:07:48.877Z,13.90
2023-04-01T00:10:35.151Z,14.00
2023-04-01T00:13:22.448Z,14.10
2023-04-01T00:16:19.869Z,14.10
2023-04-01T00:19:07.457Z,14.00
2023-04-01T00:21:53.663Z,13.90
2023-04-01T00:24:40.701Z,13.80
2023-04-01T00:27:27.221Z,13.80
2023-04-01T00:30:13.391Z,13.80
2023-04-01T00:32:59.879Z,13.80
2023-04-01T00:35:47.660Z,13.80
2023-04-01T00:38:33.763Z,13.60
2023-04-01T00:41:22.493Z,13.50
2023-04-01T00:44:24.381Z,13.30
2023-04-01T00:47:10.543Z,13.10
2023-04-01T00:49:57.034Z,13.10
2023-04-01T00:52:43.562Z,13.00
2023-04-01T00:55:33.552Z,13.00
2023-04-01T00:58:25.113Z,12.90
2023-04-01T01:01:11.713Z,12.90
2023-04-01T01:03:58.521Z,12.70
2023-04-01T01:06:47.788Z,12.40
2023-04-01T01:10:07.284Z,12.20
2023-04-01T01:13:11.842Z,12.10
2023-04-01T01:16:03.665Z,12.30
2023-04-01T01:19:14.212Z,12.40
2023-04-01T01:22:03.054Z,12.60
2023-04-01T01:24:48.699Z,12.60
2023-04-01T01:27:39.273Z,12.80
2023-04-01T01:30:45.564Z,12.90
2023-04-01T01:33:55.671Z,13.00
2023-04-01T01:36:46.211Z,13.00
2023-04-01T01:39:35.272Z,13.10
2023-04-01T01:42:23.178Z,13.10
2023-04-01T01:45:13.994Z,13.20
2023-04-01T01:48:03.179Z,13.40
2023-04-01T01:50:51.207Z,13.50
2023-04-01T01:53:38.138Z,13.70
2023-04-01T01:56:28.454Z,14.00
2023-04-01T01:59:16.619Z,14.20
2023-04-01T02:02:09.082Z,14.30
2023-04-01T02:04:55.940Z,14.40
2023-04-01T02:07:46.649Z,14.40
2023-04-01T02:10:37.641Z,14.10
2023-04-01T02:13:50.366Z,14.20
2023-04-01T02:16:57.227Z,13.90
2023-04-01T02:20:08.345Z,12.20
2023-04-01T02:22:57.895Z,12.50
2023-04-01T02:25:45.107Z,12.90
2023-04-01T02:28:33.356Z,13.20
2023-04-01T02:31:23.269Z,13.30
2023-04-01T02:34:09.975Z,13.10
2023-04-01T02:36:57.939Z,12.20
2023-04-01T02:39:44.660Z,11.50
2023-04-01T02:42:30.949Z,10.80
2023-04-01T02:45:16.780Z,10.40
2023-04-01T02:48:03.355Z,10.20
2023-04-01T02:50:49.411Z,10.10
2023-04-01T02:53:35.537Z,9.40
2023-04-01T02:56:21.377Z,9.70
2023-04-01T02:59:07.469Z,10.10
2023-04-01T03:01:53.526Z,10.40
2023-04-01T03:04:39.571Z,10.30
2023-04-01T03:07:25.868Z,10.20
2023-04-01T03:10:11.907Z,10.00
2023-04-01T03:12:58.031Z,8.90
2023-04-01T03:15:43.673Z,10.60
2023-04-01T03:18:29.975Z,11.00
2023-04-01T03:21:24.948Z,11.00
2023-04-01T03:24:10.954Z,11.00
2023-04-01T03:26:56.931Z,10.70
2023-04-01T03:29:43.349Z,10.70
2023-04-01T03:32:29.334Z,11.20
2023-04-01T03:35:15.821Z,11.20
2023-04-01T03:38:02.232Z,11.20
2023-04-01T03:40:48.473Z,11.20
2023-04-01T03:43:35.006Z,11.20
2023-04-01T03:46:21.866Z,11.20
2023-04-01T03:49:12.984Z,11.00
2023-04-01T03:51:59.113Z,10.70
2023-04-01T03:54:45.656Z,11.00
2023-04-01T03:57:34.707Z,11.20
2023-04-01T04:00:31.934Z,11.20
2023-04-01T04:03:18.047Z,11.10
2023-04-01T04:06:04.125Z,10.80
2023-04-01T04:08:50.931Z,10.70
2023-04-01T04:11:36.728Z,10.50
2023-04-01T04:14:23.720Z,10.50
2023-04-01T04:17:17.381Z,10.40
2023-04-01T04:20:06.375Z,10.40
2023-04-01T04:22:52.266Z,10.20
2023-04-01T04:25:38.153Z,10.30
2023-04-01T04:28:24.135Z,10.30
2023-04-01T04:31:11.495Z,10.20
2023-04-01T04:34:03.826Z,10.30
2023-04-01T04:36:55.777Z,10.70
2023-04-01T04:39:45.199Z,10.80
2023-04-01T04:42:31.379Z,10.40
2023-04-01T04:45:23.189Z,10.10
2023-04-01T04:48:20.087Z,10.30
2023-04-01T04:51:05.996Z,10.40
2023-04-01T04:53:53.181Z,10.40
2023-04-01T04:56:47.688Z,10.40
2023-04-01T04:59:33.869Z,10.10
2023-04-01T05:02:27.642Z,9.80
2023-04-01T05:05:13.548Z,9.90
2023-04-01T05:07:59.544Z,9.90
2023-04-01T05:10:50.595Z,10.00
2023-04-01T05:13:37.333Z,9.40
2023-04-01T05:16:23.390Z,9.10
2023-04-01T05:19:09.553Z,9.10
2023-04-01T05:21:55.258Z,9.10
2023-04-01T05:24:40.943Z,9.20
2023-04-01T05:27:28.197Z,8.90
2023-04-01T05:30:14.634Z,9.30
2023-04-01T05:33:19.340Z,9.60
2023-04-01T05:36:15.672Z,9.40
2023-04-01T05:39:01.928Z,9.60
2023-04-01T05:41:49.376Z,9.30
2023-04-01T05:48:36.251Z,9.40
2023-04-01T05:51:22.344Z,9.50
2023-04-01T05:54:08.165Z,9.60
2023-04-01T05:56:54.699Z,9.60
2023-04-01T05:59:40.944Z,10.20
2023-04-01T06:02:27.318Z,10.20
2023-04-01T06:05:22.418Z,9.90
2023-04-01T06:08:17.204Z,10.00
2023-04-01T06:11:25.847Z,9.80
2023-04-01T06:14:18.380Z,10.00
2023-04-01T06:17:15.763Z,10.40
2023-04-01T06:20:19.815Z,10.70
2023-04-01T06:23:24.541Z,11.20
2023-04-01T06:26:30.014Z,11.50
2023-04-01T06:29:56.780Z,11.60
2023-04-01T06:33:10.086Z,11.30
2023-04-01T06:36:08.347Z,11.30
2023-04-01T06:39:29.052Z,11.60
2023-04-01T06:42:39.746Z,12.10
2023-04-01T06:45:36.925Z,12.50
2023-04-01T06:49:00.528Z,13.10
2023-04-01T06:52:40.365Z,13.50
2023-04-01T06:56:03.811Z,13.40
2023-04-01T06:59:18.830Z,12.20
2023-04-01T07:02:11.335Z,11.70
2023-04-01T07:05:00.356Z,11.80
2023-04-01T07:07:51.464Z,11.60
2023-04-01T07:11:03.737Z,11.70
2023-04-01T07:14:36.576Z,12.20
2023-04-01T07:17:27.565Z,12.90
2023-04-01T07:20:36.243Z,12.50
2023-04-01T07:23:30.657Z,12.80
2023-04-01T07:26:39.617Z,13.50
2023-04-01T07:29:34.938Z,14.00
2023-04-01T07:32:24.182Z,14.40
2023-04-01T07:35:37.200Z,14.70
2023-04-01T07:38:45.637Z,15.00
2023-04-01T07:41:52.168Z,15.30
2023-04-01T07:44:55.163Z,15.40
2023-04-01T07:48:01.446Z,15.60
2023-04-01T07:51:05.293Z,15.80
2023-04-01T07:54:27.103Z,15.60
2023-04-01T07:57:19.731Z,15.90
2023-04-01T08:00:12.622Z,16.10
2023-04-01T08:03:16.869Z,15.30
2023-04-01T08:06:26.681Z,16.10
2023-04-01T08:09:36.897Z,16.10
2023-04-01T08:13:04.206Z,17.60
2023-04-01T08:17:06.418Z,18.70
2023-04-01T08:20:23.908Z,20.10
2023-04-01T08:26:59.133Z,22.00
2023-04-01T08:30:01.683Z,24.00
2023-04-01T08:33:18.384Z,24.10
2023-04-01T08:36:18.861Z,24.70
2023-04-01T08:39:32.184Z,25.20
2023-04-01T08:42:36.084Z,23.60
2023-04-01T08:46:07.525Z,25.30
2023-04-01T08:49:02.750Z,25.30
2023-04-01T08:52:28.084Z,25.30
2023-04-01T08:55:23.625Z,24.40
2023-04-01T08:58:39.793Z,22.60
2023-04-01T09:01:42.442Z,22.90
2023-04-01T09:04:47.940Z,23.60
2023-04-01T09:07:43.435Z,24.20
2023-04-01T09:10:33.924Z,25.50
2023-04-01T09:13:58.163Z,25.70
2023-04-01T09:16:49.171Z,27.00
2023-04-01T09:19:47.425Z,27.70
2023-04-01T09:22:53.104Z,27.30
2023-04-01T09:25:51.627Z,28.30
2023-04-01T09:29:18.906Z,28.50
2023-04-01T09:32:34.378Z,27.30
2023-04-01T09:35:56.872Z,26.60
2023-04-01T09:38:59.030Z,26.70
2023-04-01T09:41:58.093Z,27.90
2023-04-01T09:45:28.539Z,27.70
2023-04-01T09:48:52.063Z,28.50
2023-04-01T09:52:01.437Z,28.80
2023-04-01T09:54:50.732Z,28.70
2023-04-01T09:57:43.232Z,28.20
2023-04-01T10:00:44.321Z,27.70
2023-04-01T10:03:36.851Z,28.70
2023-04-01T10:07:03.068Z,29.00
2023-04-01T10:10:28.398Z,28.90
2023-04-01T10:13:55.176Z,30.10
2023-04-01T10:17:18.659Z,28.90
2023-04-01T10:20:05.527Z,29.90
2023-04-01T10:23:22.005Z,29.70
2023-04-01T10:26:42.531Z,29.30
2023-04-01T10:30:06.725Z,29.80
2023-04-01T10:33:18.852Z,28.90
2023-04-01T10:36:39.056Z,30.30
2023-04-01T10:39:46.921Z,31.20
2023-04-01T10:42:59.625Z,31.90
2023-04-01T10:46:41.639Z,30.10
2023-04-01T10:49:53.134Z,30.80
2023-04-01T10:52:59.375Z,30.50
2023-04-01T10:56:26.766Z,29.70
2023-04-01T10:59:51.423Z,30.60
2023-04-01T11:03:25.128Z,29.10
2023-04-01T11:06:45.806Z,31.00
2023-04-01T11:09:49.818Z,30.70
2023-04-01T11:12:49.391Z,31.20
2023-04-01T11:15:58.725Z,31.30
2023-04-01T11:19:08.555Z,31.00
2023-04-01T11:22:10.757Z,31.00
2023-04-01T11:25:32.261Z,30.50
2023-04-01T11:28:46.319Z,30.30
2023-04-01T11:31:47.281Z,31.90
2023-04-01T11:34:52.551Z,31.30
2023-04-01T11:37:56.711Z,30.50
2023-04-01T11:41:24.046Z,28.80
2023-04-01T11:44:56.896Z,30.00
2023-04-01T11:48:09.475Z,30.00
2023-04-01T11:51:08.491Z,30.30
2023-04-01T11:54:12.624Z,29.80
2023-04-01T11:57:26.560Z,30.20
2023-04-01T12:00:53.029Z,30.20
2023-04-01T12:03:57.797Z,30.70
2023-04-01T12:06:58.475Z,31.00
2023-04-01T12:09:47.217Z,31.10
2023-04-01T12:13:00.553Z,31.10
2023-04-01T12:16:23.913Z,31.10
2023-04-01T12:19:29.336Z,31.50
2023-04-01T12:22:51.134Z,31.20
2023-04-01T12:25:37.585Z,30.20
2023-04-01T12:28:44.855Z,29.90
2023-04-01T12:31:58.890Z,28.80
2023-04-01T12:35:04.983Z,25.80
2023-04-01T12:37:57.080Z,24.10
2023-04-01T12:41:18.923Z,23.80
2023-04-01T12:44:39.482Z,23.10
2023-04-01T12:47:41.173Z,22.70
2023-04-01T12:50:49.840Z,22.30
2023-04-01T12:54:04.549Z,22.40
2023-04-01T12:57:09.286Z,22.90
2023-04-01T12:59:58.193Z,22.30
2023-04-01T13:03:16.622Z,22.20
2023-04-01T13:06:08.231Z,22.50
2023-04-01T13:09:18.188Z,22.20
2023-04-01T13:12:19.677Z,22.20
2023-04-01T13:15:20.971Z,22.00
2023-04-01T13:18:47.448Z,21.90
2023-04-01T13:21:50.114Z,21.80
2023-04-01T13:24:59.830Z,21.90
2023-04-01T13:27:56.705Z,21.80
2023-04-01T13:30:49.674Z,21.80
2023-04-01T13:34:05.557Z,21.80
2023-04-01T13:37:18.606Z,21.90
2023-04-01T13:40:25.256Z,22.10
2023-04-01T13:43:34.760Z,22.00
2023-04-01T13:46:40.646Z,22.10
2023-04-01T13:50:02.474Z,22.20
2023-04-01T13:53:06.923Z,21.90
2023-04-01T13:56:17.703Z,21.80
2023-04-01T13:59:29.771Z,21.70
2023-04-01T14:02:29.728Z,21.90
2023-04-01T14:05:42.111Z,22.10
2023-04-01T14:08:57.370Z,22.10
2023-04-01T14:12:06.476Z,22.20
2023-04-01T14:15:22.756Z,22.00
2023-04-01T14:18:25.828Z,22.10
2023-04-01T14:21:37.258Z,22.00
2023-04-01T14:25:00.476Z,21.90
2023-04-01T14:27:58.267Z,21.80
2023-04-01T14:31:22.437Z,21.70
2023-04-01T14:34:24.293Z,21.40
2023-04-01T14:37:17.130Z,21.40
2023-04-01T14:40:37.542Z,21.40
2023-04-01T14:43:42.516Z,21.50
2023-04-01T14:47:00.277Z,21.40
2023-04-01T14:50:03.997Z,21.30
2023-04-01T14:53:11.316Z,21.60
2023-04-01T14:56:04.242Z,21.40
2023-04-01T14:58:59.287Z,21.10
2023-04-01T15:02:12.172Z,21.40
2023-04-01T15:05:26.328Z,21.40
2023-04-01T15:08:52.453Z,21.50
2023-04-01T15:12:02.810Z,21.60
2023-04-01T15:15:01.626Z,21.40
2023-04-01T15:18:11.524Z,21.40
2023-04-01T15:21:29.619Z,21.50
2023-04-01T15:24:40.645Z,21.60
2023-04-01T15:28:05.933Z,21.50
2023-04-01T15:31:00.742Z,21.30
2023-04-01T15:34:10.579Z,21.40
2023-04-01T15:37:24.136Z,21.40
2023-04-01T15:40:23.790Z,21.40
2023-04-01T15:43:26.523Z,21.50
2023-04-01T15:46:34.347Z,21.40
2023-04-01T15:49:38.962Z,21.40
2023-04-01T15:53:04.306Z,20.20
2023-04-01T15:55:58.639Z,21.60
2023-04-01T15:59:17.152Z,21.30
2023-04-01T16:02:12.349Z,21.50
2023-04-01T16:05:23.978Z,21.40
2023-04-01T16:08:56.454Z,21.50
2023-04-01T16:11:57.020Z,21.20
2023-04-01T16:15:15.374Z,21.40
2023-04-01T16:18:10.384Z,21.40
2023-04-01T16:21:23.646Z,21.10
2023-04-01T16:24:46.860Z,21.00
2023-04-01T16:27:53.048Z,21.90
2023-04-01T16:30:43.302Z,21.70
2023-04-01T16:33:48.449Z,21.80
2023-04-01T16:36:37.874Z,21.90
2023-04-01T16:39:47.597Z,21.90
2023-04-01T16:42:53.116Z,21.80
2023-04-01T16:46:06.477Z,21.70
2023-04-01T16:49:14.279Z,22.00
2023-04-01T16:52:12.847Z,21.60
2023-04-01T16:55:16.409Z,21.40
2023-04-01T16:58:02.997Z,21.40
2023-04-01T17:01:07.097Z,21.20
2023-04-01T17:04:10.026Z,21.30
2023-04-01T17:07:19.706Z,21.20
2023-04-01T17:10:31.332Z,21.00
2023-04-01T17:13:42.559Z,20.70
2023-04-01T17:16:56.610Z,20.60
2023-04-01T17:20:17.560Z,20.20
2023-04-01T17:23:15.684Z,19.80
2023-04-01T17:26:34.499Z,20.30
2023-04-01T17:30:06.441Z,20.20
2023-04-01T17:33:09.217Z,20.20
2023-04-01T17:36:07.863Z,19.90
2023-04-01T17:39:23.302Z,19.80
2023-04-01T17:42:43.107Z,19.80
2023-04-01T17:45:44.815Z,19.60
2023-04-01T17:48:55.926Z,19.60
2023-04-01T17:51:53.459Z,19.40
2023-04-01T17:54:49.299Z,19.30
2023-04-01T17:57:51.811Z,19.30
2023-04-01T18:01:06.297Z,19.40
2023-04-01T18:04:23.112Z,19.50
2023-04-01T18:07:22.057Z,17.70
2023-04-01T18:10:32.650Z,19.30
2023-04-01T18:14:12.855Z,19.40
2023-04-01T18:17:23.641Z,19.30
2023-04-01T18:20:25.294Z,19.20
2023-04-01T18:24:01.706Z,18.90
2023-04-01T18:27:04.523Z,18.80
2023-04-01T18:30:12.685Z,18.80
2023-04-01T18:33:19.271Z,18.70
2023-04-01T18:36:36.176Z,18.40
2023-04-01T18:39:42.190Z,18.40
2023-04-01T18:42:51.750Z,18.40
2023-04-01T18:46:03.403Z,18.50
2023-04-01T18:49:13.534Z,18.60
2023-04-01T18:52:14.839Z,18.50
2023-04-01T18:55:03.951Z,18.40
2023-04-01T18:58:10.370Z,18.50
2023-04-01T19:01:12.344Z,18.50
2023-04-01T19:04:11.595Z,18.20
2023-04-01T19:07:21.468Z,18.00
2023-04-01T19:10:35.100Z,18.00
2023-04-01T19:13:34.064Z,18.20
2023-04-01T19:16:31.533Z,17.90
2023-04-01T19:19:29.388Z,17.90
2023-04-01T19:22:31.681Z,17.90
2023-04-01T19:25:41.995Z,18.00
2023-04-01T19:28:49.796Z,17.90
2023-04-01T19:31:53.399Z,17.80
2023-04-01T19:34:48.512Z,17.80
2023-04-01T19:37:37.048Z,17.90
2023-04-01T19:41:06.895Z,17.90
2023-04-01T19:43:59.415Z,18.00
2023-04-01T19:46:58.020Z,17.70
2023-04-01T19:50:18.337Z,17.60
2023-04-01T19:53:14.750Z,17.40
2023-04-01T19:56:26.594Z,17.40
2023-04-01T19:59:19.293Z,17.40
2023-04-01T20:02:08.455Z,17.50
2023-04-01T20:04:57.617Z,17.60
2023-04-01T20:07:55.883Z,17.50
2023-04-01T20:11:02.942Z,17.60
2023-04-01T20:13:49.148Z,17.70
2023-04-01T20:17:04.846Z,17.40
2023-04-01T20:20:26.967Z,17.60
2023-04-01T20:23:12.723Z,17.70
2023-04-01T20:26:15.343Z,17.70
2023-04-01T20:29:14.670Z,17.70
2023-04-01T20:32:20.963Z,17.60
2023-04-01T20:35:18.597Z,17.60
2023-04-01T20:38:16.777Z,17.40
2023-04-01T20:41:38.690Z,17.30
2023-04-01T20:44:44.526Z,17.20
2023-04-01T20:47:55.374Z,17.00
2023-04-01T20:50:47.517Z,17.00
2023-04-01T20:53:51.868Z,17.00
2023-04-01T20:56:55.752Z,17.00
2023-04-01T21:00:00.917Z,17.10
2023-04-01T21:02:50.260Z,16.80
2023-04-01T21:06:05.840Z,17.00
2023-04-01T21:09:10.866Z,16.90
2023-04-01T21:12:18.156Z,16.90
2023-04-01T21:15:04.174Z,16.80
2023-04-01T21:18:09.076Z,16.70
2023-04-01T21:21:09.224Z,16.80
2023-04-01T21:24:24.329Z,16.80
2023-04-01T21:27:38.486Z,16.80
2023-04-01T21:30:37.031Z,16.80
2023-04-01T21:33:33.727Z,16.80
2023-04-01T21:36:35.868Z,16.70
2023-04-01T21:39:40.178Z,16.70
2023-04-01T21:42:48.596Z,16.70
2023-04-01T21:45:55.707Z,16.40
2023-04-01T21:48:47.522Z,16.50
2023-04-01T21:51:45.426Z,16.70
2023-04-01T21:55:11.193Z,16.60
2023-04-01T21:58:09.325Z,16.50
2023-04-01T22:01:17.967Z,16.50
2023-04-01T22:04:41.361Z,16.70
2023-04-01T22:07:48.865Z,16.80
2023-04-01T22:11:09.571Z,16.80
2023-04-01T22:14:23.019Z,16.70
2023-04-01T22:17:25.166Z,16.40
2023-04-01T22:20:34.239Z,16.60
2023-04-01T22:23:34.358Z,16.30
2023-04-01T22:26:36.276Z,16.10
2023-04-01T22:29:37.126Z,16.30
2023-04-01T22:32:38.900Z,16.20
2023-04-01T22:35:47.855Z,15.80
2023-04-01T22:38:42.748Z,15.90
2023-04-01T22:41:41.060Z,15.90
2023-04-01T22:44:38.703Z,16.10
2023-04-01T22:47:31.954Z,16.10
2023-04-01T22:50:43.324Z,16.20
2023-04-01T22:53:52.725Z,16.00
2023-04-01T22:56:56.776Z,16.10
2023-04-01T23:00:01.462Z,16.20
2023-04-01T23:03:07.312Z,16.30
2023-04-01T23:05:59.679Z,15.40
2023-04-01T23:08:45.609Z,14.00
2023-04-01T23:11:53.255Z,13.60
2023-04-01T23:14:52.015Z,14.10
2023-04-01T23:18:10.046Z,13.80
2023-04-01T23:21:01.437Z,13.80
2023-04-01T23:24:12.706Z,13.40
2023-04-01T23:27:18.874Z,13.70
2023-04-01T23:30:05.284Z,14.00
2023-04-01T23:32:52.057Z,13.20
2023-04-01T23:35:52.967Z,13.10
2023-04-01T23:38:44.702Z,12.90
2023-04-01T23:41:33.416Z,12.90
2023-04-01T23:44:20.502Z,13.10
2023-04-01T23:47:10.180Z,12.70
2023-04-01T23:50:06.668Z,12.80
2023-04-01T23:53:26.554Z,12.90
2023-04-01T23:56:12.465Z,13.00
2023-04-01T23:58:58.585Z,12.90
